Time;durP1;ratioP1;P1;durP2;ratioP2;P2;SDS_P1;SDS_P2;PMS_P1;PMS_P2;Temp;Humidity;BMP_temperature;BMP_pressure;BME280_temperature;BME280_humidity;BME280_pressure;Samples;Min_cycle;Max_cycle;Signal;HPM_P1;HPM_P2
2021/01/10 00:01:27;;;;;;;11.07;7.50;;;1.60;99.90;;;;;;5054696;28;20182;-59
2021/01/10 00:03:53;;;;;;;12.30;8.15;;;1.60;99.90;;;;;;5053532;28;20186;-59
2021/01/10 00:06:19;;;;;;;14.65;7.93;;;1.60;99.90;;;;;;5054356;28;20175;-59
2021/01/10 00:08:46;;;;;;;10.10;6.80;;;1.60;99.90;;;;;;5053989;28;20227;-59
2021/01/10 00:11:12;;;;;;;11.00;6.78;;;1.60;99.90;;;;;;5054127;28;20630;-59
2021/01/10 00:13:38;;;;;;;12.60;7.63;;;1.60;99.90;;;;;;5053115;28;20214;-59
2021/01/10 00:16:04;;;;;;;13.65;8.05;;;1.70;99.90;;;;;;5053830;28;20178;-58
2021/01/10 00:18:30;;;;;;;13.68;7.38;;;1.70;99.90;;;;;;5054083;28;20540;-59
2021/01/10 00:20:56;;;;;;;12.88;8.57;;;1.60;99.90;;;;;;5053936;28;20182;-59
2021/01/10 00:23:23;;;;;;;12.80;7.88;;;1.60;99.90;;;;;;5053658;28;20171;-59
2021/01/10 00:25:51;;;;;;;13.68;7.13;;;1.60;99.90;;;;;;5053773;28;20214;-58
2021/01/10 00:28:17;;;;;;;10.40;7.43;;;1.60;99.90;;;;;;5054160;28;20618;-58
2021/01/10 00:30:44;;;;;;;12.45;7.00;;;1.70;99.90;;;;;;5054405;28;20177;-59
2021/01/10 00:33:10;;;;;;;11.75;6.80;;;1.60;99.90;;;;;;5053522;28;20174;-59
2021/01/10 00:35:36;;;;;;;13.32;6.47;;;1.60;99.90;;;;;;5045587;28;20221;-58
2021/01/10 00:38:02;;;;;;;15.95;6.00;;;1.60;99.90;;;;;;5053822;28;20535;-57
2021/01/10 00:40:28;;;;;;;8.43;5.30;;;1.60;99.90;;;;;;5053733;28;20197;-58
2021/01/10 00:42:54;;;;;;;10.57;4.95;;;1.60;99.90;;;;;;5053415;28;20191;-59
2021/01/10 00:45:21;;;;;;;7.68;4.85;;;1.60;99.90;;;;;;5053117;28;20543;-58
2021/01/10 00:47:47;;;;;;;6.53;4.22;;;1.50;99.90;;;;;;5053726;28;20203;-58
2021/01/10 00:50:14;;;;;;;6.68;4.00;;;1.50;99.90;;;;;;5053630;28;20541;-58
2021/01/10 00:52:40;;;;;;;7.53;4.13;;;1.60;99.90;;;;;;5053697;28;20654;-59
2021/01/10 00:55:07;;;;;;;4.47;3.20;;;1.60;99.90;;;;;;5053273;28;20182;-58
2021/01/10 00:57:33;;;;;;;5.50;3.22;;;1.60;99.90;;;;;;5053787;28;20190;-58
2021/01/10 00:59:59;;;;;;;5.45;3.20;;;1.60;99.90;;;;;;5053625;28;20202;-58
2021/01/10 01:02:25;;;;;;;7.47;3.80;;;1.60;99.90;;;;;;5053729;28;20182;-58
2021/01/10 01:04:51;;;;;;;8.50;4.43;;;1.60;99.90;;;;;;5052982;28;20202;-58
2021/01/10 01:07:17;;;;;;;6.70;3.25;;;1.60;99.90;;;;;;5053092;28;20217;-57
2021/01/10 01:09:43;;;;;;;5.07;3.38;;;1.70;99.90;;;;;;5053864;28;20546;-58
2021/01/10 01:12:09;;;;;;;6.65;3.35;;;1.60;99.90;;;;;;5053650;28;20191;-58
2021/01/10 01:14:36;;;;;;;7.45;2.85;;;1.70;99.90;;;;;;5053662;28;20206;-59
2021/01/10 01:17:02;;;;;;;4.90;3.20;;;1.80;99.90;;;;;;5053612;28;20190;-58
2021/01/10 01:19:28;;;;;;;5.43;3.30;;;1.80;99.90;;;;;;5053392;28;20575;-59
2021/01/10 01:21:54;;;;;;;5.70;3.15;;;1.70;99.90;;;;;;5053568;28;20186;-59
2021/01/10 01:24:21;;;;;;;7.00;2.92;;;1.80;99.90;;;;;;5054014;28;20181;-58
2021/01/10 01:26:48;;;;;;;6.28;3.13;;;1.80;99.90;;;;;;5053390;28;20573;-59
2021/01/10 01:29:15;;;;;;;6.47;4.03;;;1.80;99.90;;;;;;5054037;28;20179;-58
2021/01/10 01:31:41;;;;;;;4.82;3.17;;;1.90;99.90;;;;;;5053779;28;20174;-59
2021/01/10 01:34:07;;;;;;;4.97;3.30;;;1.80;99.90;;;;;;5052646;28;20662;-59
2021/01/10 01:36:33;;;;;;;7.93;2.95;;;1.90;99.90;;;;;;5052966;28;20185;-59
2021/01/10 01:39:01;;;;;;;7.85;3.28;;;1.90;99.90;;;;;;5052676;28;20171;-59
2021/01/10 01:41:27;;;;;;;5.45;3.20;;;1.90;99.90;;;;;;5053161;28;20171;-57
2021/01/10 01:43:53;;;;;;;5.18;3.05;;;1.90;99.90;;;;;;5052649;28;20527;-58
2021/01/10 01:46:29;;;;;;;6.25;2.95;;;1.90;99.90;;;;;;5052332;28;20174;-58
2021/01/10 01:49:01;;;;;;;7.00;4.50;;;1.90;99.90;;;;;;5052409;28;20228;-58
2021/01/10 01:51:27;;;;;;;6.10;3.50;;;2.00;99.90;;;;;;5051083;28;20174;-58
2021/01/10 01:53:54;;;;;;;4.28;2.70;;;2.00;99.90;;;;;;5051425;28;20201;-57
2021/01/10 01:56:20;;;;;;;6.05;3.20;;;1.90;99.90;;;;;;5051074;28;20167;-58
2021/01/10 01:59:08;;;;;;;7.95;3.17;;;1.90;99.90;;;;;;5045924;28;20191;-59
2021/01/10 02:01:35;;;;;;;6.15;2.90;;;2.00;99.90;;;;;;5046556;28;20167;-58
2021/01/10 02:04:10;;;;;;;7.75;3.78;;;2.00;99.90;;;;;;5048778;28;20565;-59
2021/01/10 02:06:43;;;;;;;8.15;3.38;;;2.00;99.90;;;;;;5032884;28;20182;-57
2021/01/10 02:09:09;;;;;;;8.13;3.30;;;2.00;99.90;;;;;;5042963;28;20222;-59
2021/01/10 02:11:37;;;;;;;6.90;3.50;;;2.10;99.90;;;;;;5027041;28;20215;-59
2021/01/10 02:14:07;;;;;;;6.60;3.15;;;2.10;99.90;;;;;;5049903;28;20722;-59
2021/01/10 02:16:34;;;;;;;8.07;3.50;;;2.10;99.90;;;;;;5026130;28;20198;-59
2021/01/10 02:19:00;;;;;;;14.60;3.90;;;2.10;99.90;;;;;;5034488;28;20170;-59
2021/01/10 02:21:27;;;;;;;7.45;3.15;;;2.10;99.90;;;;;;5034336;28;20178;-59
2021/01/10 02:23:59;;;;;;;10.68;4.00;;;2.10;99.90;;;;;;5033521;28;20202;-60
2021/01/10 02:26:25;;;;;;;6.05;3.22;;;2.20;99.90;;;;;;5034912;28;20217;-59
2021/01/10 02:28:51;;;;;;;5.82;3.67;;;2.20;99.90;;;;;;5051292;28;20650;-59
2021/01/10 02:31:18;;;;;;;8.07;3.40;;;2.30;99.90;;;;;;5034423;28;20170;-59
2021/01/10 02:33:52;;;;;;;8.82;4.03;;;2.20;99.90;;;;;;5034474;28;20178;-59
2021/01/10 02:36:22;;;;;;;13.18;3.50;;;2.20;99.90;;;;;;5035550;28;21137;-60
2021/01/10 02:39:27;;;;;;;7.68;3.47;;;2.20;99.90;;;;;;5050613;28;20189;-59
2021/01/10 02:42:17;;;;;;;5.90;2.97;;;2.20;99.90;;;;;;5049935;28;20163;-60
2021/01/10 02:45:16;;;;;;;9.63;3.20;;;2.20;99.90;;;;;;5034786;28;20631;-60
2021/01/10 02:47:42;;;;;;;9.18;3.85;;;2.20;99.90;;;;;;5047002;28;20218;-60
2021/01/10 02:50:09;;;;;;;7.68;2.47;;;2.20;99.90;;;;;;5049105;28;20175;-60
2021/01/10 02:52:35;;;;;;;8.63;3.55;;;2.30;99.90;;;;;;5046551;28;20249;-60
2021/01/10 02:55:02;;;;;;;5.38;3.22;;;2.30;99.90;;;;;;5051374;28;20183;-60
2021/01/10 02:57:37;;;;;;;6.32;3.22;;;2.30;99.90;;;;;;5052283;28;20172;-60
2021/01/10 03:00:13;;;;;;;7.60;3.03;;;2.30;99.90;;;;;;5034208;28;20176;-60
2021/01/10 03:02:39;;;;;;;12.10;3.25;;;2.30;99.90;;;;;;5052218;28;20516;-60
2021/01/10 03:05:06;;;;;;;9.25;3.63;;;2.30;99.90;;;;;;5033383;28;20197;-60
2021/01/10 03:07:35;;;;;;;6.43;3.10;;;2.40;99.90;;;;;;5050184;28;20206;-58
2021/01/10 03:10:03;;;;;;;5.93;3.20;;;2.30;99.90;;;;;;5051706;28;20186;-60
2021/01/10 03:12:29;;;;;;;7.10;2.85;;;2.30;99.90;;;;;;5050365;28;20187;-60
2021/01/10 03:14:57;;;;;;;8.73;3.28;;;2.30;99.90;;;;;;5013444;28;20179;-60
2021/01/10 03:17:31;;;;;;;9.90;3.50;;;2.30;99.90;;;;;;5051252;28;20202;-60
2021/01/10 03:19:58;;;;;;;8.52;3.80;;;2.30;99.90;;;;;;5051514;28;20165;-60
2021/01/10 03:22:24;;;;;;;7.45;3.33;;;2.30;99.90;;;;;;5051917;28;20191;-60
2021/01/10 03:24:50;;;;;;;5.63;2.80;;;2.30;99.90;;;;;;5051777;28;20175;-60
2021/01/10 03:27:16;;;;;;;7.63;3.10;;;2.30;99.90;;;;;;5052292;28;20213;-60
2021/01/10 03:29:43;;;;;;;8.70;3.17;;;2.40;99.90;;;;;;5054783;28;20674;-60
2021/01/10 03:32:09;;;;;;;8.07;3.25;;;2.30;99.90;;;;;;5054109;28;20198;-60
2021/01/10 03:34:35;;;;;;;10.95;4.10;;;2.40;99.90;;;;;;5055307;28;20186;-60
2021/01/10 03:37:01;;;;;;;4.68;2.90;;;2.40;99.90;;;;;;5055437;28;20181;-60
2021/01/10 03:39:27;;;;;;;5.68;2.90;;;2.40;99.90;;;;;;5055033;28;20198;-60
2021/01/10 03:41:54;;;;;;;7.55;3.00;;;2.40;99.90;;;;;;5054885;28;20190;-60
2021/01/10 03:44:20;;;;;;;10.50;3.25;;;2.40;99.90;;;;;;5035765;28;20193;-60
2021/01/10 03:46:46;;;;;;;7.50;2.90;;;2.40;99.90;;;;;;5055359;28;20178;-58
2021/01/10 03:49:12;;;;;;;9.23;3.65;;;2.40;99.90;;;;;;5054926;28;20210;-59
2021/01/10 03:51:38;;;;;;;10.48;3.55;;;2.30;99.90;;;;;;5054299;28;20662;-58
2021/01/10 03:54:05;;;;;;;8.73;3.42;;;2.30;99.90;;;;;;5054608;28;20205;-60
2021/01/10 03:56:31;;;;;;;8.50;3.50;;;2.40;99.90;;;;;;5054788;28;20175;-60
2021/01/10 03:58:57;;;;;;;6.88;3.53;;;2.40;99.90;;;;;;5054292;28;20186;-59
2021/01/10 04:01:23;;;;;;;9.95;3.80;;;2.40;99.90;;;;;;5054645;28;20183;-60
2021/01/10 04:03:49;;;;;;;7.72;3.40;;;2.40;99.90;;;;;;5054267;28;20198;-60
2021/01/10 04:06:15;;;;;;;8.68;3.70;;;2.40;99.90;;;;;;5054494;28;20170;-59
2021/01/10 04:08:41;;;;;;;6.30;3.55;;;2.30;99.90;;;;;;5054960;28;20233;-60
2021/01/10 04:11:08;;;;;;;12.30;4.60;;;2.40;99.90;;;;;;5054536;28;20527;-60
2021/01/10 04:13:34;;;;;;;9.55;3.65;;;2.40;99.90;;;;;;5053477;28;20657;-59
2021/01/10 04:16:00;;;;;;;16.25;3.90;;;2.40;99.90;;;;;;5054058;28;20178;-60
2021/01/10 04:18:26;;;;;;;9.13;3.95;;;2.40;99.90;;;;;;5053974;28;20182;-60
2021/01/10 04:20:52;;;;;;;10.05;3.65;;;2.40;99.90;;;;;;5052790;28;20191;-60
2021/01/10 04:23:18;;;;;;;10.98;4.20;;;2.40;99.90;;;;;;5054314;28;20189;-60
2021/01/10 04:25:44;;;;;;;15.32;4.47;;;2.50;99.90;;;;;;5054415;28;20218;-60
2021/01/10 04:28:10;;;;;;;8.98;3.33;;;2.50;99.90;;;;;;5054369;28;20206;-60
2021/01/10 04:30:37;;;;;;;11.50;4.30;;;2.50;99.90;;;;;;5054360;28;20194;-60
2021/01/10 04:33:03;;;;;;;12.80;4.97;;;2.50;99.90;;;;;;5053705;28;20183;-60
2021/01/10 04:35:30;;;;;;;11.68;4.28;;;2.50;99.90;;;;;;5054706;28;20200;-60
2021/01/10 04:37:56;;;;;;;14.90;4.70;;;2.50;99.90;;;;;;5053921;28;20170;-60
2021/01/10 04:40:22;;;;;;;19.23;4.38;;;2.50;99.90;;;;;;5053605;28;20536;-60
2021/01/10 04:42:48;;;;;;;12.88;4.60;;;2.40;99.90;;;;;;5053384;28;20183;-60
2021/01/10 04:45:14;;;;;;;10.73;5.00;;;2.50;99.90;;;;;;5053273;28;20642;-60
2021/01/10 04:47:41;;;;;;;10.23;3.80;;;2.50;99.90;;;;;;5052805;28;20189;-60
2021/01/10 04:50:08;;;;;;;13.10;4.50;;;2.50;99.90;;;;;;5052411;28;20639;-60
2021/01/10 04:52:34;;;;;;;13.70;4.50;;;2.60;99.90;;;;;;5054179;28;20182;-60
2021/01/10 04:55:00;;;;;;;10.52;4.65;;;2.60;99.90;;;;;;5035538;28;20177;-60
2021/01/10 04:57:27;;;;;;;9.88;4.47;;;2.50;99.90;;;;;;5054141;28;20174;-60
2021/01/10 04:59:54;;;;;;;12.70;4.97;;;2.60;99.90;;;;;;5054081;28;20167;-60
2021/01/10 05:02:24;;;;;;;12.43;4.80;;;2.60;99.90;;;;;;5052456;28;20504;-60
2021/01/10 05:04:50;;;;;;;9.95;4.03;;;2.60;99.90;;;;;;5052543;28;20662;-60
2021/01/10 05:07:17;;;;;;;12.30;4.15;;;2.60;99.90;;;;;;5053060;28;20534;-60
2021/01/10 05:09:43;;;;;;;14.98;4.43;;;2.60;99.90;;;;;;5051944;28;20206;-60
2021/01/10 05:12:09;;;;;;;15.88;4.80;;;2.60;99.90;;;;;;5035214;28;20198;-60
2021/01/10 05:14:35;;;;;;;13.70;4.45;;;2.60;99.90;;;;;;5052969;28;20202;-60
2021/01/10 05:17:02;;;;;;;10.90;4.25;;;2.60;99.90;;;;;;5052196;28;20175;-60
2021/01/10 05:19:31;;;;;;;14.15;4.68;;;2.50;99.90;;;;;;5053662;28;20170;-60
2021/01/10 05:22:05;;;;;;;18.13;5.22;;;2.40;99.90;;;;;;5053396;28;20191;-60
2021/01/10 05:24:31;;;;;;;20.60;5.03;;;2.40;99.90;;;;;;5053408;28;20182;-60
2021/01/10 05:26:57;;;;;;;14.27;4.93;;;2.30;99.90;;;;;;5052813;28;20207;-61
2021/01/10 05:29:23;;;;;;;20.25;5.10;;;2.20;99.90;;;;;;5052821;28;20229;-60
2021/01/10 05:31:50;;;;;;;14.57;4.78;;;2.10;99.90;;;;;;5035038;28;20171;-60
2021/01/10 05:34:17;;;;;;;17.92;4.75;;;2.00;99.90;;;;;;5051984;28;20559;-60
2021/01/10 05:36:43;;;;;;;9.75;4.50;;;1.80;99.90;;;;;;5053293;28;20175;-60
2021/01/10 05:39:20;;;;;;;20.23;5.40;;;1.80;99.90;;;;;;5052721;28;20167;-60
2021/01/10 05:41:50;;;;;;;20.75;5.38;;;1.70;99.90;;;;;;5050904;28;20201;-60
2021/01/10 05:44:16;;;;;;;16.15;5.05;;;1.70;99.90;;;;;;5050374;28;20189;-60
2021/01/10 05:46:42;;;;;;;13.20;5.18;;;1.70;99.90;;;;;;5052950;28;20539;-61
2021/01/10 05:49:17;;;;;;;23.10;6.63;;;1.60;99.90;;;;;;5051964;28;20198;-61
2021/01/10 05:51:43;;;;;;;18.25;4.40;;;1.60;99.90;;;;;;5044603;28;20185;-61
2021/01/10 05:54:09;;;;;;;14.70;5.30;;;1.60;99.90;;;;;;5042147;28;20186;-61
2021/01/10 05:56:36;;;;;;;15.30;5.03;;;1.40;99.90;;;;;;5052867;28;20552;-61
2021/01/10 05:59:02;;;;;;;18.70;5.22;;;1.40;99.90;;;;;;5050768;28;21202;-60
2021/01/10 06:01:28;;;;;;;16.17;5.40;;;1.40;99.90;;;;;;5051302;28;20181;-61
2021/01/10 06:03:54;;;;;;;14.82;4.63;;;1.40;99.90;;;;;;5050840;28;20189;-61
2021/01/10 06:06:20;;;;;;;12.60;4.43;;;1.40;99.90;;;;;;5050797;28;20186;-61
2021/01/10 06:08:47;;;;;;;12.00;4.72;;;1.30;99.90;;;;;;5052091;28;20202;-61
2021/01/10 06:11:26;;;;;;;11.45;4.28;;;1.30;99.90;;;;;;5051830;28;20181;-61
2021/01/10 06:14:02;;;;;;;8.95;4.45;;;1.30;99.90;;;;;;5051381;28;20163;-61
2021/01/10 06:16:33;;;;;;;15.88;4.95;;;1.30;99.90;;;;;;5052341;28;20177;-62
2021/01/10 06:19:05;;;;;;;11.70;4.35;;;1.30;99.90;;;;;;5052111;28;20205;-62
2021/01/10 06:21:32;;;;;;;10.02;4.63;;;1.40;99.90;;;;;;5051775;28;20178;-62
2021/01/10 06:24:02;;;;;;;12.40;4.35;;;1.40;99.90;;;;;;5052390;28;20174;-62
2021/01/10 06:26:30;;;;;;;17.45;5.30;;;1.40;99.90;;;;;;5050960;28;20225;-60
2021/01/10 06:28:57;;;;;;;11.15;4.63;;;1.50;99.90;;;;;;5052248;28;20562;-62
2021/01/10 06:31:25;;;;;;;16.33;5.03;;;1.50;99.90;;;;;;5052103;28;20201;-61
2021/01/10 06:33:56;;;;;;;13.55;4.68;;;1.60;99.90;;;;;;5052033;28;20505;-61
2021/01/10 06:36:23;;;;;;;16.52;5.20;;;1.60;99.90;;;;;;5051317;28;20193;-61
2021/01/10 06:38:52;;;;;;;21.65;5.68;;;1.70;99.90;;;;;;5052111;28;20174;-61
2021/01/10 06:41:35;;;;;;;23.17;5.85;;;1.70;99.90;;;;;;5051917;28;20639;-60
2021/01/10 06:44:08;;;;;;;21.92;5.68;;;1.80;99.90;;;;;;5051232;28;20632;-61
2021/01/10 06:46:34;;;;;;;23.02;5.93;;;1.80;99.90;;;;;;5049288;28;20174;-60
2021/01/10 06:49:00;;;;;;;29.08;7.30;;;1.90;99.90;;;;;;5051353;28;20214;-61
2021/01/10 06:51:28;;;;;;;24.40;6.32;;;2.00;99.90;;;;;;5052292;28;20623;-60
2021/01/10 06:53:55;;;;;;;27.08;7.22;;;2.00;99.90;;;;;;5052231;28;20189;-60
2021/01/10 06:56:21;;;;;;;28.77;7.63;;;2.10;99.90;;;;;;5050191;28;20178;-60
2021/01/10 06:59:22;;;;;;;37.95;7.90;;;2.20;99.90;;;;;;5050752;28;20171;-61
2021/01/10 07:01:48;;;;;;;33.72;7.68;;;2.20;99.90;;;;;;5046706;28;20182;-59
2021/01/10 07:04:23;;;;;;;40.38;9.80;;;2.20;99.90;;;;;;5054653;28;20190;-60
2021/01/10 07:06:53;;;;;;;30.52;7.80;;;2.30;99.90;;;;;;5054439;28;20178;-60
2021/01/10 07:09:21;;;;;;;27.35;7.72;;;2.40;99.90;;;;;;5055488;28;20210;-60
2021/01/10 07:11:49;;;;;;;32.03;7.03;;;2.40;99.90;;;;;;5055721;28;20205;-60
2021/01/10 07:14:33;;;;;;;30.48;7.53;;;2.40;99.90;;;;;;5055443;28;20193;-60
2021/01/10 07:17:11;;;;;;;35.38;7.85;;;2.40;99.90;;;;;;5055825;28;20163;-60
2021/01/10 07:19:42;;;;;;;34.97;8.95;;;2.40;99.90;;;;;;5055514;28;20561;-60
2021/01/10 07:22:34;;;;;;;39.10;8.50;;;2.50;99.90;;;;;;5055548;28;20170;-59
2021/01/10 07:25:33;;;;;;;35.83;8.02;;;2.50;99.90;;;;;;5054318;28;20526;-60
2021/01/10 07:28:20;;;;;;;39.28;9.57;;;2.60;99.90;;;;;;5053383;28;20179;-60
2021/01/10 07:30:46;;;;;;;33.22;8.32;;;2.70;99.90;;;;;;5053695;28;20193;-60
2021/01/10 07:33:24;;;;;;;40.47;10.23;;;2.70;99.90;;;;;;5053233;28;20183;-60
2021/01/10 07:36:00;;;;;;;37.72;9.55;;;2.70;99.90;;;;;;5055299;28;20190;-60
2021/01/10 07:38:31;;;;;;;33.58;7.03;;;2.70;99.90;;;;;;5055142;28;20534;-60
2021/01/10 07:41:21;;;;;;;35.72;7.93;;;2.80;99.90;;;;;;5053936;28;20190;-60
2021/01/10 07:43:51;;;;;;;35.17;9.00;;;2.80;99.90;;;;;;5053696;28;20193;-60
2021/01/10 07:46:55;;;;;;;27.55;8.73;;;2.70;99.90;;;;;;5055085;28;20547;-60
2021/01/10 07:49:23;;;;;;;33.58;9.27;;;2.70;99.90;;;;;;5054814;28;20658;-60
2021/01/10 07:51:49;;;;;;;35.47;8.27;;;2.70;99.90;;;;;;5054872;28;20537;-60
2021/01/10 07:54:15;;;;;;;32.33;9.07;;;2.70;99.90;;;;;;5053957;28;20545;-60
2021/01/10 07:56:41;;;;;;;34.83;8.75;;;2.70;99.90;;;;;;5054920;28;20174;-61
2021/01/10 07:59:17;;;;;;;32.38;8.20;;;2.80;99.90;;;;;;5054115;28;20183;-61
2021/01/10 08:01:50;;;;;;;25.60;8.55;;;2.80;99.90;;;;;;5054564;28;20201;-61
2021/01/10 08:04:33;;;;;;;34.30;8.48;;;2.80;99.90;;;;;;5052570;28;20182;-61
2021/01/10 08:06:59;;;;;;;30.70;7.13;;;2.80;99.90;;;;;;5050411;28;20632;-61
2021/01/10 08:09:33;;;;;;;29.80;8.65;;;2.80;99.90;;;;;;5050859;28;20563;-61
2021/01/10 08:12:02;;;;;;;31.90;8.15;;;2.80;99.90;;;;;;5047267;28;20218;-61
2021/01/10 08:14:28;;;;;;;23.65;7.15;;;2.70;99.90;;;;;;5054250;28;20186;-61
2021/01/10 08:16:54;;;;;;;28.30;7.10;;;2.70;99.90;;;;;;5054881;28;20166;-61
2021/01/10 08:19:20;;;;;;;29.65;6.72;;;2.80;99.90;;;;;;5054523;28;20175;-61
2021/01/10 08:21:46;;;;;;;24.92;6.10;;;2.70;99.90;;;;;;5054679;28;20171;-61
2021/01/10 08:24:15;;;;;;;28.48;7.05;;;2.70;99.90;;;;;;5052860;28;20181;-61
2021/01/10 08:26:42;;;;;;;33.30;6.63;;;2.70;99.90;;;;;;5054392;28;20667;-61
2021/01/10 08:29:08;;;;;;;24.95;5.57;;;2.80;99.90;;;;;;5054480;28;20238;-61
2021/01/10 08:31:35;;;;;;;28.88;5.75;;;2.70;99.90;;;;;;5054436;28;20171;-61
2021/01/10 08:34:16;;;;;;;29.95;6.15;;;2.70;99.90;;;;;;5053812;28;20179;-61
2021/01/10 08:36:44;;;;;;;25.13;6.07;;;2.80;99.90;;;;;;5054384;28;20238;-61
2021/01/10 08:39:12;;;;;;;32.17;7.95;;;2.80;99.90;;;;;;5050628;28;20182;-61
2021/01/10 08:41:41;;;;;;;25.92;6.18;;;2.70;99.90;;;;;;5044833;28;20176;-61
2021/01/10 08:44:14;;;;;;;22.27;5.10;;;2.80;99.90;;;;;;5042131;28;20570;-61
2021/01/10 08:46:50;;;;;;;22.27;5.65;;;2.80;99.90;;;;;;5043034;28;20648;-61
2021/01/10 08:49:24;;;;;;;18.92;5.00;;;2.90;99.90;;;;;;5053808;28;20596;-61
2021/01/10 08:51:50;;;;;;;31.75;4.55;;;2.90;99.90;;;;;;5053878;28;20170;-61
2021/01/10 08:54:21;;;;;;;20.45;5.28;;;2.90;99.90;;;;;;5054191;28;20517;-61
2021/01/10 08:56:54;;;;;;;22.55;4.53;;;2.90;99.90;;;;;;5053040;28;20159;-61
2021/01/10 08:59:20;;;;;;;21.70;4.70;;;2.90;99.90;;;;;;5053817;28;20181;-61
2021/01/10 09:01:47;;;;;;;20.23;4.55;;;2.90;99.90;;;;;;5052831;28;20185;-61
2021/01/10 09:04:14;;;;;;;14.77;3.75;;;2.90;99.90;;;;;;5052090;28;20353;-61
2021/01/10 09:07:01;;;;;;;20.58;4.03;;;2.90;99.90;;;;;;5053838;28;20185;-61
2021/01/10 09:09:30;;;;;;;17.38;3.40;;;2.90;99.90;;;;;;5053542;28;20209;-61
2021/01/10 09:12:20;;;;;;;22.13;3.58;;;3.00;99.90;;;;;;5053692;28;20217;-61
2021/01/10 09:15:09;;;;;;;13.20;3.47;;;3.00;99.90;;;;;;5052815;28;20155;-60
2021/01/10 09:17:36;;;;;;;18.80;4.32;;;2.90;99.90;;;;;;5052296;28;20171;-61
2021/01/10 09:20:09;;;;;;;18.90;4.10;;;3.00;99.90;;;;;;5033943;28;20178;-60
2021/01/10 09:22:35;;;;;;;25.17;3.67;;;3.00;99.90;;;;;;5036006;28;20908;-60
2021/01/10 09:25:11;;;;;;;17.30;4.40;;;3.10;99.90;;;;;;5051413;28;20187;-61
2021/01/10 09:27:38;;;;;;;24.00;5.28;;;3.10;99.90;;;;;;5052877;28;20214;-60
2021/01/10 09:30:08;;;;;;;21.58;3.50;;;3.10;99.90;;;;;;5052628;28;20210;-60
2021/01/10 09:32:34;;;;;;;14.52;4.22;;;3.10;99.90;;;;;;5052662;28;20194;-60
2021/01/10 09:35:00;;;;;;;22.33;4.30;;;3.10;99.90;;;;;;5050755;28;20201;-60
2021/01/10 09:37:35;;;;;;;26.70;3.80;;;3.10;99.90;;;;;;5053070;28;20194;-61
2021/01/10 09:40:09;;;;;;;19.00;3.83;;;3.10;99.90;;;;;;5052291;28;20173;-61
2021/01/10 09:42:42;;;;;;;22.23;4.05;;;3.10;99.90;;;;;;5045171;28;20249;-61
2021/01/10 09:45:09;;;;;;;31.25;4.43;;;3.00;99.90;;;;;;5050589;28;20523;-60
2021/01/10 09:47:36;;;;;;;15.60;3.40;;;3.10;99.90;;;;;;5042928;28;20180;-60
2021/01/10 09:50:22;;;;;;;28.20;3.65;;;3.10;99.90;;;;;;5050612;28;20222;-61
2021/01/10 09:52:52;;;;;;;14.80;3.47;;;3.20;99.90;;;;;;5042697;28;20174;-60
2021/01/10 09:55:19;;;;;;;19.27;3.10;;;3.20;99.90;;;;;;5037352;28;20531;-61
2021/01/10 09:57:46;;;;;;;20.33;3.75;;;3.20;99.90;;;;;;5051917;28;20555;-61
2021/01/10 10:00:15;;;;;;;21.50;3.38;;;3.20;99.90;;;;;;5051806;28;20190;-61
2021/01/10 10:02:45;;;;;;;21.30;3.80;;;3.20;99.90;;;;;;5040692;28;20632;-61
2021/01/10 10:05:19;;;;;;;13.43;2.63;;;3.20;99.90;;;;;;5051608;28;20202;-61
2021/01/10 10:07:49;;;;;;;23.42;3.85;;;3.20;99.90;;;;;;5049230;28;20181;-61
2021/01/10 10:10:31;;;;;;;20.15;3.53;;;3.20;99.90;;;;;;5046204;28;20215;-62
2021/01/10 10:13:08;;;;;;;16.65;3.42;;;3.20;99.90;;;;;;5048666;28;20202;-61
2021/01/10 10:15:38;;;;;;;18.33;2.97;;;3.20;99.90;;;;;;5051763;28;20514;-61
2021/01/10 10:18:05;;;;;;;18.85;2.22;;;3.20;99.90;;;;;;5043027;28;20192;-61
2021/01/10 10:20:31;;;;;;;17.70;2.30;;;3.20;99.90;;;;;;5048214;28;20185;-61
2021/01/10 10:23:12;;;;;;;17.80;2.20;;;3.20;99.90;;;;;;5051591;28;20179;-61
2021/01/10 10:25:39;;;;;;;7.90;1.80;;;3.20;99.90;;;;;;5050065;28;20194;-61
2021/01/10 10:28:05;;;;;;;15.13;2.00;;;3.20;99.90;;;;;;5052159;28;20159;-61
2021/01/10 10:30:32;;;;;;;19.77;2.13;;;3.30;99.90;;;;;;5052223;28;20206;-61
2021/01/10 10:32:58;;;;;;;13.93;1.90;;;3.30;99.90;;;;;;5051940;28;20178;-61
2021/01/10 10:35:24;;;;;;;12.55;1.63;;;3.30;99.90;;;;;;5051748;28;20538;-61
2021/01/10 10:37:51;;;;;;;13.57;2.65;;;3.30;99.90;;;;;;5052168;28;20171;-61
2021/01/10 10:40:17;;;;;;;10.52;1.83;;;3.30;99.90;;;;;;5050736;28;20187;-61
2021/01/10 10:42:44;;;;;;;11.32;1.50;;;3.30;99.90;;;;;;5051068;28;20542;-61
2021/01/10 10:45:10;;;;;;;11.18;1.23;;;3.40;99.90;;;;;;5050755;28;20197;-61
2021/01/10 10:47:36;;;;;;;14.80;2.05;;;3.40;99.90;;;;;;5048654;28;20179;-61
2021/01/10 10:50:06;;;;;;;9.55;1.40;;;3.40;99.90;;;;;;5038035;28;20230;-61
2021/01/10 10:52:33;;;;;;;13.88;1.60;;;3.30;99.90;;;;;;5045083;28;20174;-61
2021/01/10 10:54:59;;;;;;;16.58;1.60;;;3.40;99.90;;;;;;5050160;28;20179;-61
2021/01/10 10:57:25;;;;;;;13.55;2.53;;;3.40;99.90;;;;;;5050517;28;20183;-61
2021/01/10 10:59:51;;;;;;;15.63;2.35;;;3.40;99.90;;;;;;5051722;28;20617;-61
2021/01/10 11:02:17;;;;;;;12.13;1.40;;;3.50;99.90;;;;;;5047106;28;20214;-61
2021/01/10 11:04:46;;;;;;;14.43;1.35;;;3.40;99.90;;;;;;5051179;28;20178;-61
2021/01/10 11:07:14;;;;;;;12.82;1.25;;;3.50;99.90;;;;;;5051253;28;20182;-61
2021/01/10 11:09:41;;;;;;;9.23;1.50;;;3.40;99.90;;;;;;5040819;28;20214;-61
2021/01/10 11:12:11;;;;;;;13.63;1.90;;;3.40;99.90;;;;;;5051739;28;20194;-61
2021/01/10 11:14:37;;;;;;;13.85;1.52;;;3.50;99.90;;;;;;5051132;28;20202;-61
2021/01/10 11:17:07;;;;;;;8.73;1.13;;;3.40;99.90;;;;;;5050990;28;20167;-61
2021/01/10 11:19:33;;;;;;;9.43;1.52;;;3.50;99.90;;;;;;5051212;28;20178;-61
2021/01/10 11:22:04;;;;;;;8.02;1.35;;;3.50;99.90;;;;;;5052046;28;20174;-61
2021/01/10 11:24:31;;;;;;;6.82;1.40;;;3.50;99.90;;;;;;5050371;28;20186;-61
2021/01/10 11:26:57;;;;;;;7.85;1.05;;;3.50;99.90;;;;;;5050074;28;20237;-61
2021/01/10 11:29:23;;;;;;;9.77;1.50;;;3.70;99.90;;;;;;5044288;28;20199;-61
2021/01/10 11:31:49;;;;;;;15.32;2.35;;;3.70;99.90;;;;;;5051684;28;20201;-61
2021/01/10 11:34:16;;;;;;;12.70;1.83;;;3.70;99.90;;;;;;5051226;28;20175;-61
2021/01/10 11:36:44;;;;;;;17.25;2.47;;;3.60;99.90;;;;;;5051221;28;20210;-60
2021/01/10 11:39:11;;;;;;;18.42;2.17;;;3.60;99.90;;;;;;5050732;28;20189;-61
2021/01/10 11:41:41;;;;;;;5.05;0.90;;;3.70;99.90;;;;;;5049674;28;20213;-60
2021/01/10 11:44:07;;;;;;;12.10;1.30;;;3.60;99.90;;;;;;5050651;28;20186;-60
2021/01/10 11:46:33;;;;;;;7.05;1.35;;;3.60;99.90;;;;;;5050167;28;20279;-60
2021/01/10 11:48:59;;;;;;;6.53;1.30;;;3.70;99.90;;;;;;5053824;28;20178;-61
2021/01/10 11:51:26;;;;;;;6.22;1.42;;;3.70;99.90;;;;;;5054130;28;20214;-60
2021/01/10 11:53:52;;;;;;;12.82;2.10;;;3.60;99.90;;;;;;5052614;28;20182;-61
2021/01/10 11:56:18;;;;;;;14.48;1.73;;;3.60;99.90;;;;;;5052893;28;20550;-61
2021/01/10 11:58:44;;;;;;;9.65;1.48;;;3.50;99.90;;;;;;5053194;28;20527;-61
2021/01/10 12:01:10;;;;;;;8.88;2.10;;;3.50;99.90;;;;;;5052474;28;20179;-61
2021/01/10 12:03:37;;;;;;;9.63;1.10;;;3.40;99.90;;;;;;5052018;28;20643;-60
2021/01/10 12:06:04;;;;;;;12.35;1.92;;;3.50;99.90;;;;;;5052676;28;20647;-60
2021/01/10 12:08:30;;;;;;;7.75;1.50;;;3.30;99.90;;;;;;5052772;28;20191;-60
2021/01/10 12:10:56;;;;;;;8.40;1.50;;;3.20;99.90;;;;;;5052183;28;20689;-60
2021/01/10 12:13:22;;;;;;;6.28;1.40;;;3.20;99.90;;;;;;5054651;28;20628;-60
2021/01/10 12:15:49;;;;;;;7.78;1.88;;;3.20;99.90;;;;;;5054738;28;20179;-60
2021/01/10 12:18:15;;;;;;;14.10;1.40;;;3.10;99.90;;;;;;5054585;28;20178;-61
2021/01/10 12:20:41;;;;;;;11.75;1.70;;;3.00;99.90;;;;;;5054398;28;20179;-60
2021/01/10 12:23:08;;;;;;;10.32;1.98;;;2.90;99.90;;;;;;5052251;28;20178;-60
2021/01/10 12:25:34;;;;;;;6.65;1.50;;;2.90;99.90;;;;;;5053585;28;20198;-60
2021/01/10 12:28:00;;;;;;;16.98;2.13;;;2.80;99.90;;;;;;5054065;28;20178;-60
2021/01/10 12:30:26;;;;;;;8.10;1.95;;;2.70;99.90;;;;;;5054061;28;20213;-60
2021/01/10 12:32:53;;;;;;;11.80;2.10;;;2.70;99.90;;;;;;5044830;28;20186;-61
2021/01/10 12:35:19;;;;;;;13.63;2.13;;;2.60;99.90;;;;;;5053601;28;20183;-60
2021/01/10 12:37:46;;;;;;;15.63;2.13;;;2.50;99.90;;;;;;5054477;28;20179;-60
2021/01/10 12:40:13;;;;;;;12.15;1.65;;;2.40;99.90;;;;;;5053956;28;20182;-61
2021/01/10 12:42:39;;;;;;;8.75;1.60;;;2.20;99.90;;;;;;5060424;28;20177;-61
2021/01/10 12:45:06;;;;;;;16.98;2.03;;;2.00;99.90;;;;;;5057747;28;20179;-60
2021/01/10 12:47:32;;;;;;;13.88;2.58;;;1.90;99.90;;;;;;5053785;28;20181;-61
2021/01/10 12:49:59;;;;;;;7.90;1.95;;;1.90;99.90;;;;;;5054238;28;20647;-60
2021/01/10 12:52:25;;;;;;;12.27;2.55;;;1.80;99.90;;;;;;5054429;28;20205;-60
2021/01/10 12:54:51;;;;;;;18.23;3.08;;;1.80;99.90;;;;;;5052359;28;20237;-61
2021/01/10 12:57:17;;;;;;;14.70;2.45;;;1.60;99.90;;;;;;5053764;28;20237;-60
2021/01/10 12:59:43;;;;;;;13.95;2.35;;;1.60;99.90;;;;;;5052989;28;20195;-61